Ruthven, Iowa
Current Conditions -  °F | °C
As of 7:29 AM on Sunday 21 Dec 2014 (Local Time) from KSPW Reporting Station
Haze Haze  
Wind Chill: 27°   Ceiling: 200
Heat Index: 35°   Visibility: 2mi
Dew Point: 34°   Wind: 12mph
Humidity: 96%   Direction: 180°S
Pressure: 29.84"   Gusts: NA
Location:  43.13°N, 94.9°W
Report Text: KSPW 211329Z AUTO 18010KT 2SM BR OVC002 02/01 A2984 RMK AO2 T00170011 TSNO
Loading
Personal Weather Stations






























Interactive Weather Map New forecast layout! Learn more

10-Day Weather Forecast

Advertisements
Track Severe Weather on mobile